Time;durP1;ratioP1;P1;durP2;ratioP2;P2;SDS_P1;SDS_P2;PMS_P1;PMS_P2;Temp;Humidity;BMP_temperature;BMP_pressure;BME280_temperature;BME280_humidity;BME280_pressure;Samples;Min_cycle;Max_cycle;Signal;HPM_P1;HPM_P2
2022/12/12 00:01:46;;;;;;;8.68;4.55;;;;;;;11.25;53.98;100567.72;1920822;75;21080;-54
2022/12/12 00:04:15;;;;;;;7.67;4.25;;;;;;;11.18;54.10;100567.16;1920961;75;21011;-55
2022/12/12 00:06:45;;;;;;;9.93;3.65;;;;;;;11.06;54.36;100557.98;1920788;75;21038;-48
2022/12/12 00:09:14;;;;;;;10.18;3.52;;;;;;;10.96;54.46;100556.70;1920858;75;21011;-50
2022/12/12 00:11:42;;;;;;;7.25;3.55;;;;;;;10.89;54.63;100563.15;1920671;75;21010;-51
2022/12/12 00:14:11;;;;;;;9.48;4.45;;;;;;;10.84;54.69;100574.34;1910189;75;21149;-48
2022/12/12 00:16:40;;;;;;;8.85;3.80;;;;;;;10.75;54.89;100575.14;1908046;75;21115;-49
2022/12/12 00:19:09;;;;;;;10.72;4.90;;;;;;;10.70;54.95;100574.47;1908131;75;21012;-53
2022/12/12 00:21:38;;;;;;;8.85;3.55;;;;;;;10.64;55.08;100574.70;1908065;75;21032;-47
2022/12/12 00:24:07;;;;;;;10.43;4.50;;;;;;;10.59;55.15;100574.92;1908181;75;21121;-53
2022/12/12 00:26:36;;;;;;;8.30;4.03;;;;;;;10.56;55.32;100572.87;1908251;75;21118;-48
2022/12/12 00:29:05;;;;;;;12.60;4.17;;;;;;;10.53;55.45;100572.55;1908171;75;21051;-54
2022/12/12 00:31:34;;;;;;;11.63;3.85;;;;;;;10.53;55.53;100567.72;1914108;75;21023;-53
2022/12/12 00:34:03;;;;;;;10.05;4.30;;;;;;;10.52;55.62;100562.08;1916211;75;21101;-49
2022/12/12 00:36:32;;;;;;;10.45;3.83;;;;;;;10.50;55.85;100571.81;1916331;75;21007;-52
2022/12/12 00:39:01;;;;;;;13.05;4.10;;;;;;;10.51;55.85;100569.56;1916491;75;21070;-48
2022/12/12 00:41:30;;;;;;;11.28;4.40;;;;;;;10.50;55.94;100571.34;1916296;75;21035;-51
2022/12/12 00:43:58;;;;;;;16.12;4.25;;;;;;;10.45;56.21;100564.56;1916283;75;21077;-50
2022/12/12 00:46:27;;;;;;;9.23;4.00;;;;;;;10.41;56.42;100565.15;1916278;75;20996;-52
2022/12/12 00:48:58;;;;;;;7.83;4.10;;;;;;;10.37;56.80;100567.05;1916327;75;21109;-52
2022/12/12 00:51:29;;;;;;;11.40;4.22;;;;;;;10.30;57.06;100552.39;1916260;75;21102;-57
2022/12/12 00:53:59;;;;;;;10.95;4.87;;;;;;;10.28;57.24;100558.18;1916377;75;21062;-49
2022/12/12 00:56:29;;;;;;;9.80;4.47;;;;;;;10.26;57.42;100557.39;1916328;75;21112;-51
2022/12/12 00:58:58;;;;;;;10.90;4.28;;;;;;;10.24;57.59;100556.59;1916276;75;21040;-50
2022/12/12 01:01:30;;;;;;;11.95;4.87;;;;;;;10.23;57.67;100556.19;1916335;75;21019;-51
2022/12/12 01:03:58;;;;;;;8.60;3.15;;;;;;;10.21;57.67;100552.77;1916214;75;20991;-49
2022/12/12 01:06:29;;;;;;;16.80;4.17;;;;;;;10.19;57.97;100551.97;1916350;75;21004;-48
2022/12/12 01:08:58;;;;;;;8.33;2.87;;;;;;;10.18;58.34;100549.81;1916261;75;21441;-58
2022/12/12 01:11:27;;;;;;;6.80;3.58;;;;;;;10.19;58.51;100548.03;1916157;75;21159;-58
2022/12/12 01:13:56;;;;;;;6.40;3.35;;;;;;;10.22;58.53;100546.13;1918988;75;21062;-57
2022/12/12 01:16:25;;;;;;;16.40;5.62;;;;;;;10.36;58.67;100545.58;1915746;74;21611;-56
2022/12/12 01:18:54;;;;;;;8.40;4.05;;;;;;;10.49;58.78;100539.34;1921939;73;21114;-61
2022/12/12 01:21:24;;;;;;;9.03;3.60;;;;;;;10.82;58.22;100541.00;1908545;75;21019;-54
2022/12/12 01:23:52;;;;;;;11.25;4.15;;;;;;;11.15;57.57;100535.19;1920406;75;20974;-55
2022/12/12 01:26:23;;;;;;;7.92;3.30;;;;;;;11.28;56.92;100532.85;1920134;75;21137;-54
2022/12/12 01:28:53;;;;;;;8.63;3.65;;;;;;;11.46;56.49;100536.91;1914355;75;21428;-55
2022/12/12 01:31:21;;;;;;;8.00;2.98;;;;;;;11.59;56.12;100532.30;1902074;75;21100;-51
2022/12/12 01:33:51;;;;;;;6.95;3.20;;;;;;;11.69;55.89;100526.59;1902100;75;21040;-56
2022/12/12 01:36:21;;;;;;;7.50;3.05;;;;;;;11.83;55.76;100524.16;1918272;75;20982;-49
2022/12/12 01:38:52;;;;;;;7.12;2.70;;;;;;;12.06;55.62;100528.83;1919234;75;21019;-56
2022/12/12 01:41:22;;;;;;;6.67;3.58;;;;;;;12.40;55.00;100537.75;1918977;75;21101;-56
2022/12/12 01:43:51;;;;;;;5.90;3.37;;;;;;;12.77;53.83;100527.95;1919033;75;21430;-56
2022/12/12 01:46:32;;;;;;;4.05;1.95;;;;;;;13.00;53.42;100521.46;1919057;75;21113;-56
2022/12/12 01:49:03;;;;;;;8.75;3.17;;;;;;;13.06;53.14;100524.64;1919181;75;21480;-56
2022/12/12 01:51:32;;;;;;;9.50;2.58;;;;;;;13.07;53.44;100513.12;1909671;75;21144;-55
2022/12/12 01:54:07;;;;;;;4.50;2.17;;;;;;;13.08;53.81;100517.48;1918996;75;21078;-56
2022/12/12 01:56:38;;;;;;;4.22;1.80;;;;;;;13.10;53.82;100512.97;1918939;75;21519;-55
2022/12/12 01:59:09;;;;;;;7.33;3.25;;;;;;;13.22;53.41;100511.92;1919083;75;21069;-54
2022/12/12 02:01:39;;;;;;;4.97;1.77;;;;;;;13.32;53.16;100514.50;1918993;75;21015;-53
2022/12/12 02:04:10;;;;;;;6.55;2.90;;;;;;;13.37;53.12;100516.44;1919035;75;21043;-55
2022/12/12 02:06:40;;;;;;;6.40;2.37;;;;;;;13.42;53.01;100503.79;1919141;75;21111;-57
2022/12/12 02:09:13;;;;;;;7.62;3.37;;;;;;;13.38;53.29;100510.19;1919105;75;21436;-54
2022/12/12 02:11:53;;;;;;;5.65;2.47;;;;;;;13.13;54.16;100515.45;1919876;75;20989;-54
2022/12/12 02:14:28;;;;;;;7.62;3.15;;;;;;;12.88;54.51;100507.95;1920585;75;21159;-56
2022/12/12 02:17:30;;;;;;;4.45;2.40;;;;;;;12.75;55.23;100513.02;1919795;75;21171;-56
2022/12/12 02:20:27;;;;;;;5.15;2.12;;;;;;;12.60;55.28;100516.47;1920768;75;21014;-53
2022/12/12 02:23:20;;;;;;;6.50;3.17;;;;;;;12.39;55.56;100528.10;1881281;75;21114;-54
2022/12/12 02:26:09;;;;;;;6.42;3.27;;;;;;;12.31;55.96;100513.97;1918650;75;21466;-55
2022/12/12 02:29:00;;;;;;;6.22;2.85;;;;;;;12.25;56.24;100521.73;1920360;75;21039;-57
2022/12/12 02:31:35;;;;;;;8.48;3.22;;;;;;;12.13;56.50;100524.96;1920628;75;21086;-56
2022/12/12 02:34:26;;;;;;;6.90;3.08;;;;;;;12.01;56.71;100526.42;1920068;75;21011;-56
2022/12/12 02:37:18;;;;;;;5.95;2.10;;;;;;;11.96;57.32;100517.39;1920790;75;21003;-55
2022/12/12 02:40:12;;;;;;;5.75;3.33;;;;;;;12.11;57.46;100529.47;1917043;75;21406;-58
2022/12/12 02:42:43;;;;;;;8.78;3.40;;;;;;;12.24;57.21;100523.97;1903772;75;21103;-57
2022/12/12 02:45:24;;;;;;;6.17;2.37;;;;;;;12.35;57.30;100525.61;1919591;75;21057;-57
2022/12/12 02:47:56;;;;;;;6.00;2.00;;;;;;;12.51;55.81;100521.73;1919364;74;21612;-58
2022/12/12 02:50:27;;;;;;;7.28;2.52;;;;;;;13.00;54.06;100529.39;1920719;75;21042;-61
2022/12/12 02:52:56;;;;;;;5.35;2.87;;;;;;;13.40;52.75;100521.53;1920798;75;21469;-61
2022/12/12 02:55:25;;;;;;;3.33;1.45;;;;;;;13.67;51.94;100512.56;1920853;75;21006;-59
2022/12/12 02:57:54;;;;;;;5.60;2.22;;;;;;;13.88;49.56;100519.75;1920802;75;21038;-61
2022/12/12 03:00:24;;;;;;;4.15;2.27;;;;;;;14.10;49.86;100519.88;1920804;75;21530;-60
2022/12/12 03:07:45;;;;;;;8.05;2.60;;;;;;;14.29;47.97;100517.88;1920972;75;21139;-61
2022/12/12 03:09:07;;;;;;;3.52;1.67;;;;;;;14.49;48.07;100510.55;1920685;75;21031;-60
2022/12/12 03:11:45;;;;;;;7.80;2.75;;;;;;;14.56;47.01;100511.05;1920140;75;21454;-59
2022/12/12 03:14:25;;;;;;;6.55;2.58;;;;;;;14.64;47.52;100510.14;1916704;75;21093;-55
2022/12/12 03:17:06;;;;;;;5.47;2.02;;;;;;;14.69;46.72;100503.25;1919199;75;21035;-60
2022/12/12 03:19:50;;;;;;;5.45;2.17;;;;;;;14.73;46.31;100499.47;1918802;75;21074;-56
2022/12/12 03:22:36;;;;;;;3.33;2.10;;;;;;;14.78;46.17;100496.08;1917881;75;21531;-56
2022/12/12 03:25:08;;;;;;;5.35;2.12;;;;;;;14.84;45.64;100504.97;1868890;75;21019;-60
2022/12/12 03:27:48;;;;;;;7.92;2.65;;;;;;;14.89;45.40;100499.41;1918928;75;21544;-60
2022/12/12 03:30:19;;;;;;;5.72;2.10;;;;;;;14.99;43.76;100496.07;1911980;75;21465;-63
2022/12/12 03:33:00;;;;;;;7.22;2.37;;;;;;;15.12;43.73;100504.13;1919037;75;21031;-57
2022/12/12 03:35:41;;;;;;;4.28;2.27;;;;;;;15.18;43.25;100494.94;1919076;75;21073;-60
2022/12/12 03:38:16;;;;;;;6.25;2.15;;;;;;;15.22;43.10;100507.08;1918909;75;21031;-62
2022/12/12 03:40:53;;;;;;;5.60;2.50;;;;;;;15.25;43.23;100500.23;1917642;74;21054;-61
2022/12/12 03:43:37;;;;;;;5.90;2.62;;;;;;;15.27;43.23;100506.78;1919252;75;21016;-62
2022/12/12 03:46:31;;;;;;;6.62;1.95;;;;;;;15.25;43.03;100512.17;1917176;75;21152;-59
2022/12/12 03:49:06;;;;;;;4.67;2.15;;;;;;;15.30;43.25;100506.59;1919154;75;21060;-60
2022/12/12 03:51:38;;;;;;;7.87;2.20;;;;;;;15.27;43.09;100512.08;1918230;75;21075;-60
2022/12/12 03:54:24;;;;;;;5.97;2.50;;;;;;;15.23;43.01;100503.46;1918671;75;21026;-61
2022/12/12 03:57:05;;;;;;;4.30;2.30;;;;;;;15.26;42.96;100503.28;1918940;75;21486;-58
2022/12/12 03:59:42;;;;;;;3.15;1.92;;;;;;;15.24;42.58;100503.38;1917506;75;21458;-59
2022/12/12 04:02:23;;;;;;;5.15;1.77;;;;;;;15.26;42.65;100523.17;1919095;75;21080;-61
2022/12/12 04:05:00;;;;;;;6.17;2.67;;;;;;;15.27;42.55;100500.14;1918909;75;21047;-62
2022/12/12 04:07:34;;;;;;;4.00;1.60;;;;;;;15.31;42.52;100500.33;1919019;75;21066;-59
2022/12/12 04:12:59;;;;;;;4.97;2.40;;;;;;;15.31;42.71;100502.53;1920362;75;21018;-59
2022/12/12 04:15:36;;;;;;;4.58;1.95;;;;;;;15.28;43.27;100501.86;1908934;75;21135;-58
2022/12/12 04:18:10;;;;;;;5.20;1.62;;;;;;;15.28;42.67;100509.34;1887913;74;21093;-55
2022/12/12 04:23:51;;;;;;;9.53;1.92;;;;;;;15.27;42.92;100501.02;1882941;76;21046;-55
2022/12/12 04:26:40;;;;;;;4.83;1.42;;;;;;;15.31;42.54;100497.67;1886084;76;21034;-54
2022/12/12 04:29:18;;;;;;;5.85;1.95;;;;;;;15.31;42.92;100505.63;1886095;76;21112;-54
2022/12/12 04:31:52;;;;;;;3.72;1.98;;;;;;;15.28;42.98;100506.69;1886243;75;21488;-53
2022/12/12 04:34:46;;;;;;;4.30;2.30;;;;;;;15.26;42.98;100500.63;1885319;74;21010;-58
2022/12/12 04:37:17;;;;;;;5.08;1.82;;;;;;;15.27;43.23;100508.10;1830580;77;21541;-62
2022/12/12 04:39:49;;;;;;;7.62;2.50;;;;;;;15.24;43.09;100506.51;1868927;76;21031;-63
2022/12/12 04:42:21;;;;;;;8.50;3.17;;;;;;;15.23;43.13;100516.72;1885772;75;21630;-61
2022/12/12 04:44:52;;;;;;;4.37;1.92;;;;;;;15.24;43.22;100507.83;1885993;76;21038;-59
2022/12/12 04:47:23;;;;;;;9.30;3.12;;;;;;;15.22;43.11;100504.42;1886125;76;21039;-58
2022/12/12 04:49:55;;;;;;;5.85;2.92;;;;;;;15.22;42.79;100515.88;1886218;76;21019;-53
2022/12/12 04:52:26;;;;;;;8.63;2.55;;;;;;;15.25;43.05;100505.09;1886123;76;21066;-52
2022/12/12 04:55:07;;;;;;;6.22;2.35;;;;;;;15.23;42.84;100500.81;1886038;76;21118;-53
2022/12/12 04:57:41;;;;;;;9.65;2.30;;;;;;;15.28;42.49;100501.38;1885797;76;21097;-53
2022/12/12 05:00:12;;;;;;;5.62;2.05;;;;;;;15.31;42.42;100509.16;1889838;75;21103;-53
2022/12/12 05:03:13;;;;;;;5.15;2.37;;;;;;;15.35;42.23;100507.17;1886257;76;21116;-53
2022/12/12 05:06:00;;;;;;;5.95;2.00;;;;;;;15.36;42.08;100508.41;1884033;75;21037;-48
2022/12/12 05:08:43;;;;;;;8.43;1.80;;;;;;;15.36;42.13;100501.77;1884611;76;21243;-47
2022/12/12 05:11:14;;;;;;;8.80;2.30;;;;;;;15.35;42.10;100500.05;1863575;76;21062;-57
2022/12/12 05:13:44;;;;;;;5.30;2.35;;;;;;;15.35;42.13;100510.66;1884825;76;21030;-57
2022/12/12 05:16:34;;;;;;;9.35;2.47;;;;;;;15.36;41.81;100513.70;1893681;74;21116;-53
2022/12/12 05:19:04;;;;;;;9.60;3.35;;;;;;;15.35;42.16;100506.69;1919011;75;21121;-58
2022/12/12 05:21:33;;;;;;;7.30;2.80;;;;;;;15.29;42.28;100511.51;1919299;75;21531;-56
2022/12/12 05:24:02;;;;;;;6.62;2.12;;;;;;;15.27;42.32;100511.63;1919079;75;21121;-55
2022/12/12 05:26:34;;;;;;;9.25;2.47;;;;;;;15.22;42.29;100503.10;1918958;75;21038;-52
2022/12/12 05:29:04;;;;;;;8.43;1.50;;;;;;;15.22;42.19;100497.31;1918988;75;21051;-56
2022/12/12 05:31:33;;;;;;;6.20;2.33;;;;;;;15.23;42.29;100506.11;1919070;75;21469;-55
2022/12/12 05:34:02;;;;;;;7.42;2.83;;;;;;;15.21;42.34;100502.23;1919060;75;21117;-54
2022/12/12 05:36:31;;;;;;;5.12;1.98;;;;;;;15.20;42.38;100501.87;1919078;75;21089;-55
2022/12/12 05:38:59;;;;;;;4.50;2.05;;;;;;;15.25;42.51;100501.11;1918963;75;21007;-53
2022/12/12 05:41:28;;;;;;;3.08;1.57;;;;;;;15.27;42.62;100493.06;1919135;75;21079;-53
2022/12/12 05:43:57;;;;;;;6.87;2.47;;;;;;;15.31;42.57;100490.59;1919116;75;20999;-54
2022/12/12 05:46:26;;;;;;;6.95;2.35;;;;;;;15.35;42.56;100490.77;1919008;75;21204;-50
2022/12/12 05:48:55;;;;;;;6.50;2.90;;;;;;;15.37;42.54;100492.84;1918105;75;20983;-46
2022/12/12 05:51:24;;;;;;;5.70;1.98;;;;;;;15.39;42.64;100485.64;1918998;75;21007;-49
2022/12/12 05:53:52;;;;;;;5.05;1.65;;;;;;;15.44;42.32;100495.49;1919005;75;21081;-46
2022/12/12 05:56:21;;;;;;;5.83;1.90;;;;;;;15.50;42.26;100498.72;1919153;75;21571;-46
2022/12/12 05:58:50;;;;;;;3.20;1.82;;;;;;;15.53;42.23;100485.23;1919974;75;21110;-56
2022/12/12 06:01:19;;;;;;;7.28;2.52;;;;;;;15.56;41.98;100500.48;1906813;75;21009;-53
2022/12/12 06:03:48;;;;;;;7.70;2.22;;;;;;;15.57;42.14;100492.07;1898093;75;21363;-50
2022/12/12 06:06:17;;;;;;;9.45;1.80;;;;;;;15.56;42.40;100494.33;1905551;75;21112;-56
2022/12/12 06:08:45;;;;;;;9.45;2.67;;;;;;;15.50;42.46;100497.39;1908527;75;21070;-55
2022/12/12 06:11:14;;;;;;;9.15;2.27;;;;;;;15.48;42.50;100493.98;1907174;75;21081;-48
2022/12/12 06:13:43;;;;;;;8.83;2.52;;;;;;;15.46;42.44;100503.84;1903790;75;21104;-51
2022/12/12 06:16:15;;;;;;;6.37;2.27;;;;;;;15.47;42.26;100495.76;1897506;75;20991;-51
2022/12/12 06:18:45;;;;;;;4.95;2.00;;;;;;;15.48;42.39;100486.02;1898645;75;21031;-47
2022/12/12 06:21:17;;;;;;;8.05;2.90;;;;;;;15.48;42.30;100496.63;1900896;75;21478;-47
2022/12/12 06:23:44;;;;;;;5.45;1.98;;;;;;;15.49;42.24;100492.53;1898567;75;21007;-48
2022/12/12 06:26:14;;;;;;;5.85;1.80;;;;;;;15.49;42.13;100496.52;1902341;75;21535;-51
2022/12/12 06:28:44;;;;;;;8.15;1.90;;;;;;;15.51;41.91;100499.07;1902918;75;21170;-53
2022/12/12 06:31:15;;;;;;;6.35;2.77;;;;;;;15.54;41.68;100504.20;1897598;75;21084;-47
2022/12/12 06:33:44;;;;;;;6.10;2.20;;;;;;;15.60;41.50;100503.80;1902994;75;21741;-46
2022/12/12 06:36:22;;;;;;;7.80;2.37;;;;;;;15.62;41.74;100508.08;1902520;75;21521;-48
2022/12/12 06:38:45;;;;;;;;;;;;;;;15.66;41.34;100507.41;1899260;75;21053;-46
2022/12/12 06:41:15;;;;;;;4.00;1.60;;;;;;;15.68;41.29;100501.97;1901610;75;20217;-51
2022/12/12 06:43:44;;;;;;;9.78;3.22;;;;;;;15.68;41.17;100494.88;1900682;75;20999;-51
2022/12/12 06:46:18;;;;;;;9.08;2.87;;;;;;;15.68;41.32;100497.98;1900284;75;21132;-48
2022/12/12 06:48:47;;;;;;;7.47;3.02;;;;;;;15.65;41.54;100500.38;1899346;75;21592;-49
2022/12/12 06:51:19;;;;;;;13.78;5.20;;;;;;;15.60;41.89;100498.48;1896937;75;21101;-48
2022/12/12 06:53:48;;;;;;;29.10;11.18;;;;;;;15.53;42.12;100506.45;1897487;75;21170;-45
2022/12/12 06:56:20;;;;;;;29.52;10.98;;;;;;;15.51;42.29;100518.52;1899739;75;21512;-47
2022/12/12 06:58:49;;;;;;;11.50;3.58;;;;;;;15.49;42.38;100515.57;1902869;75;21121;-48
2022/12/12 07:01:20;;;;;;;11.55;4.10;;;;;;;15.51;42.34;100509.69;1899783;75;21102;-46
2022/12/12 07:03:50;;;;;;;19.95;7.08;;;;;;;15.61;41.98;100518.78;1897250;75;21181;-47
2022/12/12 07:06:22;;;;;;;7.62;2.65;;;;;;;15.71;41.84;100511.92;1900965;75;21620;-48
2022/12/12 07:08:51;;;;;;;10.18;3.08;;;;;;;15.79;41.51;100516.79;1905930;75;21007;-48
2022/12/12 07:11:23;;;;;;;9.78;2.98;;;;;;;15.87;41.64;100514.97;1901572;75;21746;-46
2022/12/12 07:13:52;;;;;;;7.90;2.50;;;;;;;15.91;41.69;100515.13;1903735;75;21120;-46
2022/12/12 07:16:21;;;;;;;5.85;2.52;;;;;;;15.95;41.63;100507.34;1898779;75;21113;-46
2022/12/12 07:18:50;;;;;;;10.35;2.70;;;;;;;16.00;41.02;100521.17;1870335;75;21181;-47
2022/12/12 07:21:21;;;;;;;11.88;2.25;;;;;;;16.07;40.94;100514.52;1864848;76;21429;-46
2022/12/12 07:23:49;;;;;;;8.28;2.45;;;;;;;16.11;40.73;100526.63;1871152;76;21027;-50
2022/12/12 07:26:21;;;;;;;4.40;1.47;;;;;;;16.14;39.99;100526.44;1869394;76;21454;-46
2022/12/12 07:28:50;;;;;;;5.47;2.33;;;;;;;16.18;40.06;100517.31;1865324;76;21141;-50
2022/12/12 07:31:23;;;;;;;6.28;2.20;;;;;;;16.19;39.30;100529.66;1866575;76;21661;-46
2022/12/12 07:33:53;;;;;;;7.22;3.05;;;;;;;16.21;39.62;100526.87;1872111;76;21157;-47
2022/12/12 07:36:26;;;;;;;5.83;2.30;;;;;;;16.20;39.52;100525.18;1862527;76;21552;-44
2022/12/12 07:38:52;;;;;;;8.78;2.70;;;;;;;16.21;39.37;100521.10;1866499;76;21141;-47
2022/12/12 07:41:20;;;;;;;6.83;2.47;;;;;;;16.21;39.61;100523.76;1862687;76;21149;-47
2022/12/12 07:43:51;;;;;;;4.50;1.92;;;;;;;16.20;39.64;100514.07;1870938;76;21086;-45
2022/12/12 07:46:24;;;;;;;5.03;2.02;;;;;;;16.20;39.77;100529.17;1862809;76;21149;-46
2022/12/12 07:48:54;;;;;;;13.08;2.45;;;;;;;16.19;39.83;100523.02;1795741;79;21041;-50
2022/12/12 07:51:23;;;;;;;4.40;1.62;;;;;;;16.20;40.05;100532.67;1866269;76;21148;-45
2022/12/12 07:53:52;;;;;;;5.60;2.55;;;;;;;16.20;39.97;100527.35;1869447;76;22179;-44
2022/12/12 07:56:21;;;;;;;4.67;1.87;;;;;;;16.24;40.02;100523.17;1864788;76;21239;-44
2022/12/12 07:58:51;;;;;;;7.67;2.37;;;;;;;16.27;39.60;100533.58;1866428;76;21133;-47
2022/12/12 08:01:23;;;;;;;13.80;3.52;;;;;;;16.31;39.83;100528.46;1866748;76;21137;-46
2022/12/12 08:03:54;;;;;;;10.43;2.30;;;;;;;16.32;40.00;100524.38;1863916;76;21133;-44
2022/12/12 08:06:23;;;;;;;6.17;2.90;;;;;;;16.34;39.89;100531.77;1865143;76;21125;-44
2022/12/12 08:08:52;;;;;;;10.00;3.40;;;;;;;16.36;39.90;100533.00;1869368;76;21572;-44
2022/12/12 08:11:25;;;;;;;9.20;2.98;;;;;;;16.39;40.12;100527.45;1871831;75;21839;-44
2022/12/12 08:13:54;;;;;;;7.80;2.67;;;;;;;16.41;40.15;100518.91;1864445;76;21125;-54
2022/12/12 08:16:25;;;;;;;10.20;2.72;;;;;;;16.42;40.12;100523.28;1798155;79;21127;-46
2022/12/12 08:18:56;;;;;;;21.82;6.62;;;;;;;16.42;40.27;100515.80;1881349;75;21107;-46
2022/12/12 08:21:27;;;;;;;7.37;3.02;;;;;;;16.42;40.32;100520.62;1899775;75;21086;-49
2022/12/12 08:23:57;;;;;;;22.55;7.10;;;;;;;16.43;40.43;100514.34;1898937;73;21137;-51
2022/12/12 08:26:28;;;;;;;8.03;2.47;;;;;;;16.45;40.58;100516.89;1900668;73;21089;-47
2022/12/12 08:28:58;;;;;;;5.45;2.35;;;;;;;16.43;40.40;100511.68;1900090;75;21135;-48
2022/12/12 08:31:28;;;;;;;6.67;2.52;;;;;;;16.45;40.26;100517.77;1895385;75;21128;-47
2022/12/12 08:33:57;;;;;;;5.15;1.87;;;;;;;16.47;39.61;100505.23;1900503;75;21980;-46
2022/12/12 08:36:31;;;;;;;5.72;2.42;;;;;;;16.50;39.58;100497.52;1906909;75;20983;-47
2022/12/12 08:39:08;;;;;;;7.12;2.40;;;;;;;16.52;39.65;100495.11;1898622;75;21042;-49
2022/12/12 08:41:39;;;;;;;10.15;3.08;;;;;;;16.54;39.66;100493.23;1899085;75;21132;-47
2022/12/12 08:44:10;;;;;;;6.30;2.62;;;;;;;16.54;39.72;100490.57;1903750;75;21060;-49
2022/12/12 08:46:39;;;;;;;6.80;2.47;;;;;;;16.53;39.53;100494.17;1919288;73;21182;-50
2022/12/12 08:49:09;;;;;;;7.37;3.30;;;;;;;16.52;39.29;100472.52;1902050;75;21557;-47
2022/12/12 08:51:41;;;;;;;10.65;3.27;;;;;;;16.51;39.20;100475.31;1906050;75;21426;-49
2022/12/12 08:54:12;;;;;;;6.22;2.60;;;;;;;16.48;39.08;100479.50;1904540;75;21456;-50
2022/12/12 08:56:41;;;;;;;5.15;2.35;;;;;;;16.47;39.14;100487.08;1907410;74;21023;-48
2022/12/12 08:59:10;;;;;;;3.22;1.72;;;;;;;16.45;38.92;100475.25;1902886;75;21133;-45
2022/12/12 09:01:38;;;;;;;4.50;1.35;;;;;;;16.45;39.00;100485.88;1894571;75;20985;-45
2022/12/12 09:04:07;;;;;;;9.40;2.75;;;;;;;16.46;39.00;100478.75;1905702;75;21092;-48
2022/12/12 09:06:36;;;;;;;5.12;2.60;;;;;;;16.47;39.10;100473.34;1916960;75;21019;-47
2022/12/12 09:09:05;;;;;;;7.92;2.95;;;;;;;16.48;38.83;100468.86;1918665;75;21019;-45
2022/12/12 09:11:34;;;;;;;17.50;8.10;;;;;;;16.49;38.49;100471.42;1919659;75;21583;-45
2022/12/12 09:14:02;;;;;;;11.10;5.70;;;;;;;16.48;38.50;100476.84;1898237;75;21057;-49
2022/12/12 09:16:32;;;;;;;9.20;3.20;;;;;;;16.49;38.55;100471.42;1910620;75;21552;-45
2022/12/12 09:19:01;;;;;;;12.93;4.95;;;;;;;16.50;38.53;100473.11;1901830;75;21555;-44
2022/12/12 09:21:30;;;;;;;7.10;2.65;;;;;;;16.48;38.53;100469.70;1887920;76;21018;-45
2022/12/12 09:24:00;;;;;;;5.03;2.22;;;;;;;16.47;38.62;100474.66;1903917;75;21140;-47
2022/12/12 09:26:29;;;;;;;10.58;4.75;;;;;;;16.47;38.65;100477.78;1915456;75;21094;-45
2022/12/12 09:28:58;;;;;;;8.38;3.50;;;;;;;16.45;38.87;100472.59;1894103;75;21076;-45
2022/12/12 09:31:26;;;;;;;10.32;3.33;;;;;;;16.46;38.84;100475.61;1896641;75;21059;-46
2022/12/12 09:33:55;;;;;;;10.95;3.52;;;;;;;16.46;38.90;100468.96;1910983;75;20999;-46
2022/12/12 09:36:24;;;;;;;10.08;3.75;;;;;;;16.45;39.04;100471.27;1915437;75;21463;-46
2022/12/12 09:38:53;;;;;;;7.35;2.22;;;;;;;16.43;39.27;100466.98;1915142;75;21007;-46
2022/12/12 09:41:25;;;;;;;8.93;2.90;;;;;;;16.40;39.24;100474.70;1920604;75;21075;-45
2022/12/12 09:44:09;;;;;;;13.40;4.20;;;;;;;16.38;39.43;100479.27;1901884;75;21143;-47
2022/12/12 09:46:39;;;;;;;;;;;;;;;16.40;39.40;100482.67;1902000;75;21677;-49
2022/12/12 09:49:22;;;;;;;12.23;3.12;;;;;;;16.39;39.58;100476.48;1901093;75;20205;-49
2022/12/12 09:51:51;;;;;;;;;;;;;;;16.37;39.50;100469.10;1907077;75;21033;-45
2022/12/12 09:54:23;;;;;;;11.28;4.45;;;;;;;16.37;39.70;100468.26;1910851;75;20119;-46
2022/12/12 09:57:10;;;;;;;12.75;4.40;;;;;;;16.37;39.72;100470.91;1899616;75;21203;-47
2022/12/12 09:59:44;;;;;;;8.53;3.25;;;;;;;16.37;39.83;100464.27;1903757;75;21738;-48
2022/12/12 10:02:32;;;;;;;8.70;3.50;;;;;;;16.40;39.89;100468.06;1897096;75;21021;-47
2022/12/12 10:05:14;;;;;;;18.42;7.20;;;;;;;16.41;39.73;100471.08;1897847;75;21133;-49
2022/12/12 10:07:48;;;;;;;10.15;3.58;;;;;;;16.44;39.46;100466.89;1895929;75;21612;-47
2022/12/12 10:10:35;;;;;;;17.57;6.62;;;;;;;16.47;38.86;100477.32;1896926;75;21564;-49
2022/12/12 10:13:06;;;;;;;17.27;6.33;;;;;;;16.51;38.85;100469.51;1907604;75;20999;-45
2022/12/12 10:15:38;;;;;;;7.53;3.62;;;;;;;16.49;39.65;100476.73;1900957;75;21100;-45
2022/12/12 10:18:09;;;;;;;19.48;6.78;;;;;;;16.39;41.62;100484.95;1899276;75;21618;-46
2022/12/12 10:20:43;;;;;;;10.48;3.67;;;;;;;16.24;41.94;100472.70;1905074;75;21155;-45
2022/12/12 10:23:37;;;;;;;10.63;3.42;;;;;;;16.13;42.84;100487.54;1892499;75;21129;-48
2022/12/12 10:26:19;;;;;;;5.25;2.77;;;;;;;16.00;43.22;100476.88;1901388;75;21105;-47
2022/12/12 10:28:51;;;;;;;7.22;2.70;;;;;;;15.90;44.16;100479.77;1900839;75;21615;-50
2022/12/12 10:31:42;;;;;;;10.75;4.05;;;;;;;15.88;44.65;100486.12;1908548;75;21042;-50
2022/12/12 10:34:25;;;;;;;6.47;3.12;;;;;;;15.89;44.57;100490.00;1865382;75;21575;-47
2022/12/12 10:37:03;;;;;;;7.03;3.55;;;;;;;15.94;45.12;100489.72;1902613;75;21639;-46
2022/12/12 10:40:06;;;;;;;13.58;5.42;;;;;;;15.97;45.49;100490.83;1898868;75;21061;-47
2022/12/12 10:42:40;;;;;;;8.70;3.12;;;;;;;15.95;47.83;100480.78;1898762;75;21120;-48
2022/12/12 10:45:34;;;;;;;12.43;5.17;;;;;;;15.92;47.37;100484.98;1898449;75;21827;-47
2022/12/12 10:48:04;;;;;;;7.87;2.72;;;;;;;15.94;47.83;100488.39;1896582;75;21160;-48
2022/12/12 10:50:47;;;;;;;14.15;3.42;;;;;;;15.85;48.62;100484.53;1898965;75;21083;-51
2022/12/12 10:53:16;;;;;;;11.43;3.60;;;;;;;15.68;49.36;100484.27;1900462;75;21242;-48
2022/12/12 10:56:00;;;;;;;7.70;3.42;;;;;;;15.52;49.67;100493.67;1902355;75;21633;-49
2022/12/12 10:58:30;;;;;;;;;;;;;;;15.36;50.23;100496.47;1898872;75;21677;-49
2022/12/12 11:01:03;;;;;;;9.28;3.27;;;;;;;15.22;50.30;100489.84;1898866;75;20234;-47
2022/12/12 11:03:40;;;;;;;6.33;2.20;;;;;;;15.20;50.32;100494.39;1900227;75;21009;-46
2022/12/12 11:06:12;;;;;;;5.62;2.62;;;;;;;15.21;50.36;100489.45;1903022;75;21069;-49
2022/12/12 11:08:44;;;;;;;8.05;2.90;;;;;;;15.25;50.17;100497.13;1901317;75;21041;-47
2022/12/12 11:11:24;;;;;;;7.22;3.45;;;;;;;15.30;50.09;100488.88;1893003;75;21089;-48
2022/12/12 11:13:59;;;;;;;11.10;3.90;;;;;;;15.29;49.76;100488.51;1905236;75;21195;-50
2022/12/12 11:16:44;;;;;;;8.28;3.27;;;;;;;15.31;49.48;100479.98;1898679;75;21471;-46
2022/12/12 11:19:27;;;;;;;13.18;3.22;;;;;;;15.34;49.37;100493.03;1902035;75;21214;-50
2022/12/12 11:21:58;;;;;;;13.08;4.12;;;;;;;15.33;49.29;100488.69;1901365;75;21651;-49
2022/12/12 11:24:29;;;;;;;11.68;3.87;;;;;;;15.31;49.38;100489.27;1903875;75;21450;-49
2022/12/12 11:27:07;;;;;;;14.75;4.53;;;;;;;15.30;49.54;100482.24;1896648;75;21496;-48
2022/12/12 11:29:53;;;;;;;9.45;3.77;;;;;;;15.27;49.79;100478.48;1902526;75;21096;-49
2022/12/12 11:32:31;;;;;;;13.65;4.30;;;;;;;15.28;49.79;100478.83;1894729;75;21514;-48
2022/12/12 11:35:02;;;;;;;9.05;4.70;;;;;;;15.28;50.03;100481.48;1899063;75;21455;-49
2022/12/12 11:37:34;;;;;;;9.55;3.85;;;;;;;15.29;50.07;100481.88;1903569;75;21523;-51
2022/12/12 11:40:03;;;;;;;11.15;4.22;;;;;;;15.30;50.05;100465.00;1897082;75;21159;-48
2022/12/12 11:42:34;;;;;;;13.28;2.95;;;;;;;15.33;50.01;100474.09;1907184;75;21488;-51
2022/12/12 11:45:05;;;;;;;10.60;4.25;;;;;;;15.33;50.11;100472.77;1906277;75;21111;-50
2022/12/12 11:47:46;;;;;;;12.28;4.30;;;;;;;15.35;50.09;100465.56;1900308;75;21538;-49
2022/12/12 11:50:20;;;;;;;13.40;3.75;;;;;;;15.40;50.06;100463.48;1895690;75;21448;-47
2022/12/12 11:52:51;;;;;;;12.50;3.45;;;;;;;15.48;50.02;100462.98;1897858;75;21440;-48
2022/12/12 11:55:38;;;;;;;10.72;3.55;;;;;;;15.51;50.10;100473.41;1903794;75;21089;-45
2022/12/12 11:58:19;;;;;;;12.15;4.00;;;;;;;15.52;50.30;100475.58;1899217;75;21615;-46
2022/12/12 12:01:02;;;;;;;11.28;3.85;;;;;;;15.49;50.61;100473.95;1898462;75;21162;-47
2022/12/12 12:03:47;;;;;;;;;;;;;;;15.48;50.85;100472.27;1903104;75;21130;-50